Falmouth, Indiana
Current Conditions -  °F | °C
As of 9:53 AM on Monday 22 Dec 2014 (Local Time) from KGEZ Reporting Station
Overcast Overcast  
Wind Chill: 31°   Ceiling: 1300
Heat Index: 37°   Visibility: 9mi
Dew Point: 31°   Wind: 8mph
Humidity: 79%   Direction: 110°ESE
Pressure: 29.95"   Gusts: NA
Location:  39.7°N, 85.3°W
Report Text: KGEZ 221453Z AUTO 11007KT 9SM OVC013 03/M01 A2995 RMK AO2 SLP147 T00281006 58010
Loading
Personal Weather Stations






























Interactive Weather Map New forecast layout! Learn more

10-Day Weather Forecast

Advertisements
Track Severe Weather on mobile